Conrad, Montana
Current Conditions -  °F | °C
As of 5:56 AM on Monday 22 Dec 2014 (Local Time) from KCTB Reporting Station
Clear Clear  
Wind Chill: 19°   Ceiling: Unl
Heat Index: 28°   Visibility: 10mi
Dew Point: 20°   Wind: 10mph
Humidity: 72%   Direction: 280°W
Pressure: 29.74"   Gusts: NA
Location:  48.17°N, 111.95°W
Report Text: KCTB 221256Z AUTO 28009KT 10SM CLR M02/M07 A2974 RMK AO2 SLP100 T10221067
Loading
Personal Weather Stations






























Interactive Weather Map New forecast layout! Learn more

10-Day Weather Forecast

Advertisements
Track Severe Weather on mobile